EWG35M EDDH-LKPR
Flight info
| Callsign | EWG35M |
|---|---|
| Flight time | 1h 2m |
| Altitude | 23000 |
| Route | RAMAR6G RAMAR Z998 NUSGU/N0447F350 Z998 OSKAN M748 HDO DCT GOLOP |
| Aircraft | A21N/M-SDE2E3FGHIRWXY/LB1 |
Departure
| Time | 2026-04-22 19:17 |
|---|---|
| Airport | Hamburg Helmut Schmidt Airport (EDDH) |
Arrival
| Time | 2026-04-22 20:19 |
|---|---|
| Airport | Václav Havel Airport Prague (LKPR) |
| Time | Latitude | Longitude | Altitude | Speed | Heading |
|---|---|---|---|---|---|
| 2026-04-22 19:01 | 53.63333 | 10.00344 | 54 ft | 0 kts | 84° |
| 2026-04-22 19:07 | 53.63333 | 10.00340 | 54 ft | 2 kts | 84° |
| 2026-04-22 19:07 | 53.63331 | 10.00313 | 54 ft | 2 kts | 84° |
| 2026-04-22 19:07 | 53.63330 | 10.00286 | 54 ft | 2 kts | 86° |
| 2026-04-22 19:08 | 53.63330 | 10.00258 | 54 ft | 2 kts | 96° |
| 2026-04-22 19:08 | 53.63337 | 10.00235 | 54 ft | 2 kts | 161° |
| 2026-04-22 19:08 | 53.63344 | 10.00232 | 54 ft | 0 kts | 176° |
| 2026-04-22 19:08 | 53.63343 | 10.00232 | 54 ft | 0 kts | 178° |
| 2026-04-22 19:09 | 53.63340 | 10.00232 | 49 ft | 2 kts | 178° |
| 2026-04-22 19:10 | 53.63320 | 10.00234 | 54 ft | 4 kts | 177° |
| 2026-04-22 19:10 | 53.63310 | 10.00235 | 50 ft | 1 kts | 177° |
| 2026-04-22 19:10 | 53.63271 | 10.00236 | 52 ft | 6 kts | 191° |
| 2026-04-22 19:10 | 53.63243 | 10.00171 | 50 ft | 11 kts | 242° |
| 2026-04-22 19:11 | 53.63179 | 10.00029 | 51 ft | 20 kts | 232° |
| 2026-04-22 19:11 | 53.63097 | 9.99916 | 52 ft | 12 kts | 186° |
| 2026-04-22 19:11 | 53.63026 | 9.99929 | 53 ft | 0 kts | 150° |
| 2026-04-22 19:11 | 53.62997 | 9.99957 | 50 ft | 11 kts | 150° |
| 2026-04-22 19:12 | 53.62921 | 9.99972 | 50 ft | 9 kts | 220° |
| 2026-04-22 19:12 | 53.62901 | 9.99922 | 50 ft | 1 kts | 240° |
| 2026-04-22 19:12 | 53.62898 | 9.99916 | 50 ft | 0 kts | 241° |
| 2026-04-22 19:14 | 53.62898 | 9.99915 | 51 ft | 1 kts | 241° |
| 2026-04-22 19:14 | 53.62869 | 9.99826 | 47 ft | 12 kts | 242° |
| 2026-04-22 19:14 | 53.62871 | 9.99741 | 50 ft | 8 kts | 309° |
| 2026-04-22 19:14 | 53.62889 | 9.99724 | 53 ft | 0 kts | 334° |
| 2026-04-22 19:16 | 53.62982 | 9.99646 | 52 ft | 48 kts | 332° |
| 2026-04-22 19:16 | 53.63536 | 9.99165 | 52 ft | 132 kts | 333° |
| 2026-04-22 19:16 | 53.64507 | 9.98347 | 420 ft | 165 kts | 330° |
| 2026-04-22 19:17 | 53.65537 | 9.97427 | 1208 ft | 170 kts | 330° |
| 2026-04-22 19:17 | 53.66582 | 9.96440 | 2056 ft | 173 kts | 330° |
| 2026-04-22 19:17 | 53.67637 | 9.95403 | 2869 ft | 182 kts | 329° |
| 2026-04-22 19:17 | 53.68920 | 9.94675 | 3344 ft | 217 kts | 354° |
| 2026-04-22 19:18 | 53.70520 | 9.94763 | 4020 ft | 240 kts | 4° |
| 2026-04-22 19:18 | 53.72231 | 9.95024 | 4682 ft | 251 kts | 5° |
| 2026-04-22 19:18 | 53.73869 | 9.96009 | 4964 ft | 255 kts | 39° |
| 2026-04-22 19:18 | 53.74765 | 9.98598 | 5225 ft | 263 kts | 67° |
| 2026-04-22 19:19 | 53.75397 | 10.01533 | 6130 ft | 267 kts | 67° |
| 2026-04-22 19:19 | 53.76056 | 10.04458 | 7263 ft | 266 kts | 65° |
| 2026-04-22 19:19 | 53.76775 | 10.07345 | 8303 ft | 267 kts | 63° |
| 2026-04-22 19:19 | 53.77544 | 10.10228 | 9312 ft | 270 kts | 63° |
| 2026-04-22 19:20 | 53.78337 | 10.13089 | 10301 ft | 273 kts | 62° |
| 2026-04-22 19:20 | 53.79172 | 10.16054 | 10980 ft | 288 kts | 62° |
| 2026-04-22 19:20 | 53.80063 | 10.19237 | 11387 ft | 309 kts | 63° |
| 2026-04-22 19:20 | 53.80480 | 10.20750 | 11637 ft | 316 kts | 63° |
| 2026-04-22 19:21 | 53.81258 | 10.23597 | 12205 ft | 324 kts | 63° |
| 2026-04-22 19:21 | 53.82213 | 10.27081 | 13010 ft | 329 kts | 63° |
| 2026-04-22 19:21 | 53.83190 | 10.30608 | 13875 ft | 332 kts | 63° |
| 2026-04-22 19:21 | 53.84188 | 10.34172 | 14637 ft | 336 kts | 64° |
| 2026-04-22 19:22 | 53.84848 | 10.37973 | 15355 ft | 344 kts | 85° |
| 2026-04-22 19:22 | 53.84777 | 10.40671 | 15844 ft | 349 kts | 97° |
| 2026-04-22 19:22 | 53.84393 | 10.43109 | 16283 ft | 354 kts | 109° |
| 2026-04-22 19:22 | 53.83136 | 10.46750 | 17020 ft | 361 kts | 125° |
| 2026-04-22 19:23 | 53.81493 | 10.49970 | 17764 ft | 366 kts | 131° |
| 2026-04-22 19:23 | 53.79680 | 10.53046 | 18427 ft | 372 kts | 134° |
| 2026-04-22 19:23 | 53.77798 | 10.56100 | 19021 ft | 375 kts | 134° |
| 2026-04-22 19:23 | 53.75909 | 10.59183 | 19619 ft | 378 kts | 134° |
| 2026-04-22 19:24 | 53.75341 | 10.60124 | 19820 ft | 379 kts | 134° |
| 2026-04-22 19:24 | 53.73503 | 10.63226 | 20432 ft | 381 kts | 133° |
| 2026-04-22 19:24 | 53.71647 | 10.66436 | 21060 ft | 382 kts | 132° |
| 2026-04-22 19:24 | 53.69821 | 10.69653 | 21681 ft | 384 kts | 132° |
| 2026-04-22 19:25 | 53.67984 | 10.72920 | 22276 ft | 386 kts | 132° |
| 2026-04-22 19:25 | 53.66122 | 10.76243 | 22859 ft | 389 kts | 132° |
| 2026-04-22 19:25 | 53.64262 | 10.79563 | 23241 ft | 390 kts | 132° |
| 2026-04-22 19:25 | 53.62391 | 10.82893 | 23305 ft | 391 kts | 132° |
| 2026-04-22 19:26 | 53.60512 | 10.86227 | 23302 ft | 392 kts | 132° |
| 2026-04-22 19:26 | 53.58621 | 10.89569 | 23611 ft | 396 kts | 132° |
| 2026-04-22 19:26 | 53.56713 | 10.92924 | 24189 ft | 396 kts | 132° |
| 2026-04-22 19:26 | 53.54809 | 10.96271 | 24693 ft | 396 kts | 132° |
| 2026-04-22 19:27 | 53.52899 | 10.99633 | 25202 ft | 396 kts | 131° |
| 2026-04-22 19:27 | 53.51023 | 11.02933 | 25665 ft | 395 kts | 131° |
| 2026-04-22 19:27 | 53.49127 | 11.06267 | 26145 ft | 394 kts | 131° |
| 2026-04-22 19:27 | 53.47442 | 11.09230 | 26562 ft | 394 kts | 131° |
| 2026-04-22 19:28 | 53.45533 | 11.12578 | 27005 ft | 394 kts | 131° |
| 2026-04-22 19:28 | 53.43613 | 11.15940 | 27440 ft | 394 kts | 131° |
| 2026-04-22 19:28 | 53.41730 | 11.19232 | 27848 ft | 394 kts | 130° |
| 2026-04-22 19:28 | 53.39832 | 11.22545 | 28234 ft | 395 kts | 130° |
| 2026-04-22 19:29 | 53.37921 | 11.25876 | 28608 ft | 395 kts | 130° |
| 2026-04-22 19:29 | 53.36019 | 11.29185 | 28960 ft | 395 kts | 130° |
| 2026-04-22 19:29 | 53.34098 | 11.32522 | 29314 ft | 396 kts | 130° |
| 2026-04-22 19:29 | 53.32214 | 11.35790 | 29639 ft | 396 kts | 130° |
| 2026-04-22 19:30 | 53.30913 | 11.38044 | 29826 ft | 397 kts | 130° |
| 2026-04-22 19:30 | 53.28359 | 11.42466 | 30197 ft | 399 kts | 130° |
| 2026-04-22 19:30 | 53.26424 | 11.45805 | 30478 ft | 399 kts | 129° |
| 2026-04-22 19:30 | 53.24485 | 11.49149 | 30688 ft | 400 kts | 129° |
| 2026-04-22 19:31 | 53.22544 | 11.52491 | 30887 ft | 401 kts | 129° |
| 2026-04-22 19:31 | 53.20626 | 11.55790 | 31110 ft | 401 kts | 129° |
| 2026-04-22 19:31 | 53.18680 | 11.59134 | 31399 ft | 400 kts | 129° |
| 2026-04-22 19:31 | 53.16766 | 11.62427 | 31705 ft | 398 kts | 129° |
| 2026-04-22 19:32 | 53.14827 | 11.65771 | 31962 ft | 397 kts | 129° |
| 2026-04-22 19:32 | 53.12909 | 11.69078 | 32242 ft | 396 kts | 129° |
| 2026-04-22 19:32 | 53.11000 | 11.72369 | 32521 ft | 394 kts | 129° |
| 2026-04-22 19:32 | 53.09095 | 11.75650 | 32795 ft | 392 kts | 128° |
| 2026-04-22 19:33 | 53.07200 | 11.78912 | 33070 ft | 391 kts | 128° |
| 2026-04-22 19:33 | 53.05330 | 11.82128 | 33256 ft | 391 kts | 128° |
| 2026-04-22 19:33 | 53.03436 | 11.85379 | 33477 ft | 391 kts | 128° |
| 2026-04-22 19:33 | 53.01542 | 11.88617 | 33736 ft | 390 kts | 128° |
| 2026-04-22 19:34 | 52.99650 | 11.91845 | 33993 ft | 388 kts | 128° |
| 2026-04-22 19:34 | 52.97768 | 11.95052 | 34254 ft | 386 kts | 128° |
| 2026-04-22 19:34 | 52.95898 | 11.98237 | 34461 ft | 385 kts | 128° |
| 2026-04-22 19:34 | 52.94014 | 12.01447 | 34579 ft | 387 kts | 128° |
| 2026-04-22 19:35 | 52.92153 | 12.04613 | 34674 ft | 389 kts | 128° |
| 2026-04-22 19:35 | 52.90257 | 12.07826 | 34792 ft | 390 kts | 128° |
| 2026-04-22 19:35 | 52.88975 | 12.09992 | 34869 ft | 390 kts | 128° |
| 2026-04-22 19:35 | 52.86446 | 12.14254 | 35036 ft | 392 kts | 128° |
| 2026-04-22 19:36 | 52.84536 | 12.17466 | 35168 ft | 393 kts | 128° |
| 2026-04-22 19:36 | 52.80680 | 12.23942 | 35284 ft | 396 kts | 128° |
| 2026-04-22 19:37 | 52.76822 | 12.30387 | 35286 ft | 397 kts | 128° |
| 2026-04-22 19:37 | 52.72446 | 12.36102 | 35276 ft | 407 kts | 141° |
| 2026-04-22 19:38 | 52.67594 | 12.41042 | 35287 ft | 412 kts | 140° |
| 2026-04-22 19:38 | 52.62769 | 12.46278 | 35283 ft | 417 kts | 139° |
| 2026-04-22 19:39 | 52.57984 | 12.51724 | 35291 ft | 423 kts | 138° |
| 2026-04-22 19:39 | 52.53163 | 12.57276 | 35286 ft | 422 kts | 138° |
| 2026-04-22 19:40 | 52.48358 | 12.62833 | 35279 ft | 422 kts | 137° |
| 2026-04-22 19:40 | 52.43554 | 12.68384 | 35275 ft | 422 kts | 138° |
| 2026-04-22 19:41 | 52.38731 | 12.73934 | 35277 ft | 423 kts | 138° |
| 2026-04-22 19:41 | 52.33940 | 12.79431 | 35273 ft | 423 kts | 138° |
| 2026-04-22 19:42 | 52.30717 | 12.83119 | 35292 ft | 423 kts | 138° |
| 2026-04-22 19:42 | 52.26005 | 12.88500 | 35273 ft | 422 kts | 138° |
| 2026-04-22 19:43 | 52.18796 | 12.96708 | 35273 ft | 423 kts | 138° |
| 2026-04-22 19:43 | 52.15690 | 13.00236 | 35274 ft | 424 kts | 138° |
| 2026-04-22 19:44 | 52.12445 | 13.03912 | 35273 ft | 424 kts | 138° |
| 2026-04-22 19:44 | 52.07729 | 13.09241 | 35273 ft | 424 kts | 138° |
| 2026-04-22 19:45 | 52.02904 | 13.14679 | 35303 ft | 424 kts | 138° |
| 2026-04-22 19:45 | 51.98050 | 13.20138 | 35287 ft | 424 kts | 138° |
| 2026-04-22 19:46 | 51.93193 | 13.25584 | 35285 ft | 424 kts | 138° |
| 2026-04-22 19:46 | 51.88357 | 13.30995 | 35290 ft | 425 kts | 138° |
| 2026-04-22 19:47 | 51.83478 | 13.36440 | 35289 ft | 425 kts | 138° |
| 2026-04-22 19:47 | 51.79426 | 13.40947 | 35288 ft | 426 kts | 138° |
| 2026-04-22 19:48 | 51.75849 | 13.44917 | 35286 ft | 426 kts | 138° |
| 2026-04-22 19:48 | 51.70958 | 13.50334 | 35281 ft | 426 kts | 138° |
| 2026-04-22 19:49 | 51.66066 | 13.55736 | 35012 ft | 424 kts | 138° |
| 2026-04-22 19:49 | 51.63656 | 13.58384 | 34699 ft | 424 kts | 138° |
| 2026-04-22 19:49 | 51.61216 | 13.61051 | 34358 ft | 422 kts | 138° |
| 2026-04-22 19:50 | 51.58782 | 13.63699 | 33914 ft | 421 kts | 137° |
| 2026-04-22 19:50 | 51.56357 | 13.66337 | 33395 ft | 422 kts | 138° |
| 2026-04-22 19:50 | 51.53943 | 13.68968 | 32859 ft | 425 kts | 138° |
| 2026-04-22 19:50 | 51.51482 | 13.71645 | 32341 ft | 429 kts | 139° |
| 2026-04-22 19:51 | 51.49006 | 13.74324 | 31831 ft | 432 kts | 139° |
| 2026-04-22 19:51 | 51.46478 | 13.77047 | 31333 ft | 436 kts | 140° |
| 2026-04-22 19:51 | 51.43953 | 13.79757 | 30844 ft | 440 kts | 140° |
| 2026-04-22 19:51 | 51.41388 | 13.82503 | 30343 ft | 443 kts | 141° |
| 2026-04-22 19:52 | 51.38850 | 13.85215 | 29779 ft | 442 kts | 141° |
| 2026-04-22 19:52 | 51.36295 | 13.87944 | 29195 ft | 440 kts | 141° |
| 2026-04-22 19:52 | 51.33759 | 13.90661 | 28659 ft | 437 kts | 141° |
| 2026-04-22 19:52 | 51.31237 | 13.93373 | 28102 ft | 434 kts | 141° |
| 2026-04-22 19:53 | 51.28721 | 13.96088 | 27564 ft | 442 kts | 141° |
| 2026-04-22 19:53 | 51.26132 | 13.98863 | 27024 ft | 451 kts | 142° |
| 2026-04-22 19:53 | 51.23505 | 14.01636 | 26485 ft | 453 kts | 142° |
| 2026-04-22 19:53 | 51.20878 | 14.04388 | 25955 ft | 451 kts | 142° |
| 2026-04-22 19:54 | 51.18255 | 14.07142 | 25438 ft | 448 kts | 142° |
| 2026-04-22 19:54 | 51.15661 | 14.09880 | 24926 ft | 445 kts | 142° |
| 2026-04-22 19:54 | 51.13093 | 14.12608 | 24423 ft | 443 kts | 142° |
| 2026-04-22 19:54 | 51.10546 | 14.15327 | 23929 ft | 440 kts | 142° |
| 2026-04-22 19:55 | 51.08007 | 14.18045 | 23355 ft | 438 kts | 142° |
| 2026-04-22 19:55 | 51.05519 | 14.20707 | 22786 ft | 436 kts | 142° |
| 2026-04-22 19:55 | 51.02978 | 14.23421 | 22211 ft | 433 kts | 142° |
| 2026-04-22 19:55 | 51.00521 | 14.26042 | 21665 ft | 430 kts | 142° |
| 2026-04-22 19:56 | 50.98042 | 14.28683 | 21136 ft | 428 kts | 142° |
| 2026-04-22 19:56 | 50.95573 | 14.31310 | 20594 ft | 426 kts | 142° |
| 2026-04-22 19:56 | 50.93118 | 14.33919 | 20066 ft | 424 kts | 143° |
| 2026-04-22 19:56 | 50.90714 | 14.36579 | 19579 ft | 421 kts | 142° |
| 2026-04-22 19:57 | 50.88014 | 14.38448 | 19069 ft | 439 kts | 167° |
| 2026-04-22 19:57 | 50.84909 | 14.38819 | 18607 ft | 451 kts | 173° |
| 2026-04-22 19:57 | 50.81801 | 14.39479 | 18064 ft | 450 kts | 166° |
| 2026-04-22 19:57 | 50.78758 | 14.40545 | 17543 ft | 447 kts | 163° |
| 2026-04-22 19:58 | 50.75903 | 14.41642 | 17296 ft | 446 kts | 163° |
| 2026-04-22 19:58 | 50.72974 | 14.42766 | 17260 ft | 445 kts | 163° |
| 2026-04-22 19:58 | 50.69964 | 14.43909 | 17266 ft | 444 kts | 163° |
| 2026-04-22 19:58 | 50.66959 | 14.45040 | 17271 ft | 444 kts | 163° |
| 2026-04-22 19:59 | 50.63953 | 14.46164 | 17263 ft | 443 kts | 163° |
| 2026-04-22 20:00 | 50.50965 | 14.44213 | 15851 ft | 396 kts | 238° |
| 2026-04-22 20:00 | 50.49261 | 14.40788 | 15358 ft | 399 kts | 228° |
| 2026-04-22 20:01 | 50.47261 | 14.37782 | 14870 ft | 398 kts | 221° |
| 2026-04-22 20:01 | 50.45118 | 14.35048 | 14446 ft | 396 kts | 218° |
| 2026-04-22 20:01 | 50.42956 | 14.32470 | 14280 ft | 380 kts | 212° |
| 2026-04-22 20:01 | 50.40668 | 14.30688 | 14002 ft | 359 kts | 198° |
| 2026-04-22 20:02 | 50.38279 | 14.29895 | 13464 ft | 346 kts | 181° |
| 2026-04-22 20:02 | 50.35937 | 14.30173 | 12926 ft | 332 kts | 163° |
| 2026-04-22 20:02 | 50.33843 | 14.31466 | 12402 ft | 319 kts | 148° |
| 2026-04-22 20:02 | 50.31886 | 14.33039 | 11880 ft | 313 kts | 148° |
| 2026-04-22 20:03 | 50.30001 | 14.34690 | 11379 ft | 309 kts | 145° |
| 2026-04-22 20:03 | 50.29379 | 14.35275 | 11204 ft | 308 kts | 144° |
| 2026-04-22 20:03 | 50.27525 | 14.37115 | 10695 ft | 306 kts | 143° |
| 2026-04-22 20:03 | 50.25765 | 14.38957 | 10351 ft | 304 kts | 142° |
| 2026-04-22 20:04 | 50.24028 | 14.40832 | 10276 ft | 304 kts | 141° |
| 2026-04-22 20:04 | 50.22291 | 14.42733 | 10264 ft | 304 kts | 141° |
| 2026-04-22 20:04 | 50.20564 | 14.44637 | 10266 ft | 304 kts | 141° |
| 2026-04-22 20:04 | 50.18839 | 14.46546 | 10265 ft | 304 kts | 141° |
| 2026-04-22 20:05 | 50.17118 | 14.48455 | 10263 ft | 304 kts | 141° |
| 2026-04-22 20:05 | 50.15396 | 14.50365 | 10265 ft | 304 kts | 141° |
| 2026-04-22 20:05 | 50.13671 | 14.52277 | 10265 ft | 304 kts | 141° |
| 2026-04-22 20:05 | 50.11949 | 14.54185 | 10205 ft | 301 kts | 141° |
| 2026-04-22 20:06 | 50.10275 | 14.56042 | 9804 ft | 292 kts | 141° |
| 2026-04-22 20:06 | 50.08634 | 14.57874 | 9273 ft | 288 kts | 141° |
| 2026-04-22 20:06 | 50.07020 | 14.59675 | 8738 ft | 284 kts | 141° |
| 2026-04-22 20:06 | 50.05350 | 14.61296 | 8228 ft | 283 kts | 153° |
| 2026-04-22 20:07 | 50.03461 | 14.62137 | 7720 ft | 282 kts | 168° |
| 2026-04-22 20:07 | 50.02213 | 14.62609 | 7443 ft | 276 kts | 158° |
| 2026-04-22 20:07 | 50.01150 | 14.63385 | 7301 ft | 265 kts | 146° |
| 2026-04-22 20:07 | 49.99734 | 14.65013 | 7255 ft | 245 kts | 136° |
| 2026-04-22 20:08 | 49.98498 | 14.66775 | 7263 ft | 240 kts | 132° |
| 2026-04-22 20:08 | 49.97304 | 14.68600 | 7267 ft | 241 kts | 131° |
| 2026-04-22 20:08 | 49.96123 | 14.70446 | 7268 ft | 241 kts | 131° |
| 2026-04-22 20:08 | 49.94971 | 14.72338 | 7261 ft | 239 kts | 128° |
| 2026-04-22 20:09 | 49.93883 | 14.74238 | 7259 ft | 233 kts | 127° |
| 2026-04-22 20:09 | 49.92827 | 14.76119 | 7225 ft | 229 kts | 126° |
| 2026-04-22 20:09 | 49.91780 | 14.77985 | 6889 ft | 231 kts | 127° |
| 2026-04-22 20:09 | 49.90486 | 14.79498 | 6373 ft | 241 kts | 161° |
| 2026-04-22 20:10 | 49.88848 | 14.79499 | 5862 ft | 243 kts | 202° |
| 2026-04-22 20:10 | 49.87515 | 14.77984 | 5354 ft | 238 kts | 241° |
| 2026-04-22 20:10 | 49.87114 | 14.75628 | 4853 ft | 225 kts | 281° |
| 2026-04-22 20:10 | 49.87509 | 14.73304 | 4344 ft | 223 kts | 298° |
| 2026-04-22 20:11 | 49.88236 | 14.71237 | 4034 ft | 212 kts | 307° |
| 2026-04-22 20:11 | 49.89051 | 14.69433 | 3986 ft | 198 kts | 311° |
| 2026-04-22 20:11 | 49.89896 | 14.67757 | 3983 ft | 197 kts | 312° |
| 2026-04-22 20:11 | 49.90746 | 14.66079 | 3981 ft | 198 kts | 311° |
| 2026-04-22 20:12 | 49.91584 | 14.64371 | 3984 ft | 199 kts | 310° |
| 2026-04-22 20:12 | 49.92411 | 14.62643 | 3990 ft | 199 kts | 310° |
| 2026-04-22 20:12 | 49.92965 | 14.61478 | 3992 ft | 199 kts | 310° |
| 2026-04-22 20:12 | 49.94062 | 14.59196 | 3996 ft | 199 kts | 311° |
| 2026-04-22 20:13 | 49.94892 | 14.57489 | 3991 ft | 195 kts | 311° |
| 2026-04-22 20:13 | 49.95662 | 14.55881 | 4050 ft | 177 kts | 310° |
| 2026-04-22 20:13 | 49.96387 | 14.54353 | 4095 ft | 175 kts | 311° |
| 2026-04-22 20:13 | 49.97117 | 14.52837 | 4099 ft | 175 kts | 311° |
| 2026-04-22 20:14 | 49.97852 | 14.51322 | 4102 ft | 175 kts | 311° |
| 2026-04-22 20:14 | 49.98587 | 14.49807 | 4106 ft | 176 kts | 311° |
| 2026-04-22 20:14 | 49.99321 | 14.48294 | 4108 ft | 176 kts | 311° |
| 2026-04-22 20:14 | 50.00054 | 14.46778 | 4110 ft | 175 kts | 311° |
| 2026-04-22 20:15 | 50.00784 | 14.45269 | 4038 ft | 171 kts | 311° |
| 2026-04-22 20:15 | 50.01473 | 14.43839 | 3819 ft | 160 kts | 311° |
| 2026-04-22 20:15 | 50.02125 | 14.42490 | 3595 ft | 153 kts | 311° |
| 2026-04-22 20:15 | 50.02760 | 14.41180 | 3406 ft | 150 kts | 311° |
| 2026-04-22 20:16 | 50.03389 | 14.39883 | 3173 ft | 150 kts | 311° |
| 2026-04-22 20:16 | 50.04021 | 14.38580 | 2973 ft | 151 kts | 311° |
| 2026-04-22 20:16 | 50.04654 | 14.37280 | 2774 ft | 151 kts | 310° |
| 2026-04-22 20:16 | 50.05284 | 14.35985 | 2557 ft | 149 kts | 310° |
| 2026-04-22 20:17 | 50.05907 | 14.34697 | 2359 ft | 149 kts | 310° |
| 2026-04-22 20:17 | 50.06509 | 14.33387 | 2159 ft | 153 kts | 309° |
| 2026-04-22 20:17 | 50.07172 | 14.32036 | 1892 ft | 156 kts | 309° |
| 2026-04-22 20:17 | 50.07828 | 14.30679 | 1672 ft | 157 kts | 309° |
| 2026-04-22 20:18 | 50.08487 | 14.29319 | 1446 ft | 157 kts | 308° |
| 2026-04-22 20:18 | 50.09118 | 14.28015 | 1267 ft | 148 kts | 307° |
| 2026-04-22 20:18 | 50.09687 | 14.26842 | 1215 ft | 118 kts | 305° |
| 2026-04-22 20:18 | 50.10117 | 14.25951 | 1190 ft | 89 kts | 308° |
| 2026-04-22 20:19 | 50.10374 | 14.25660 | 1187 ft | 18 kts | 356° |
| 2026-04-22 20:19 | 50.10384 | 14.25659 | 1187 ft | 0 kts | 357° |
| 2026-04-22 20:20 | 50.10385 | 14.25659 | 1187 ft | 1 kts | 357° |
| 2026-04-22 20:20 | 50.10419 | 14.25657 | 1187 ft | 11 kts | 2° |
| 2026-04-22 20:20 | 50.10486 | 14.25744 | 1187 ft | 18 kts | 76° |
| 2026-04-22 20:20 | 50.10520 | 14.25999 | 1192 ft | 29 kts | 79° |
| 2026-04-22 20:21 | 50.10536 | 14.26212 | 1191 ft | 17 kts | 102° |
| 2026-04-22 20:21 | 50.10532 | 14.26297 | 1190 ft | 6 kts | 55° |
| 2026-04-22 20:21 | 50.10564 | 14.26337 | 1189 ft | 0 kts | 58° |
| 2026-04-22 20:21 | 50.10565 | 14.26340 | 1189 ft | 0 kts | 59° |